Airfield :
LOGIN :

Register | Disclaimer

   EN    FR    IT 

 










Legend :    VFR   Marginal VFR   IFR   Intensive IFR   Very Intensive IFR
Visi :
Ceiling :
>= 8 km
>= 3000ft
5 to 8 km
1000 to 3000 ft
1500m to 5 km
500 to 1000 ft
800 to 1500m
200 to 500 ft
< 800m
< 200 ft
Symbols :   Thunderstorms  Fog  Heavy snow  Heavy precipitations  Wind > 20 kt
SIGMETs :     Misc.  Thunderstorms  Icing  Turbulence  Mountain Waves  Volcanic Ashes






- Airport Elevation : 353 ft
- IATA code : CND


LRCK - Constanta

CURRENT METAR :
  • 050730Z 18008KT CAVOK 27/13 Q1009 NOSIG

EXPIRED METARs :
  • 050700Z 17009KT 140V200 CAVOK 25/13 Q1009 NOSIG
  • 050630Z 16008KT CAVOK 22/13 Q1010 NOSIG
  • 050600Z 16008KT CAVOK 22/13 Q1010 NOSIG
  • 050530Z 16008KT CAVOK 20/13 Q1009 NOSIG
  • 050500Z 17006KT CAVOK 18/12 Q1009 NOSIG

TAF TAF LRCK
Valid from the 05 at 06:00 until the 06 at 06:00 UTC


050500Z 0506/0606 17014KT CAVOK
TEMPO 0510/0516 16015G25KT
BECMG 0520/0522 VRB04KT



MET'MAP, your aeronautical weather chart ! - Copyright ORBIFLY December 2007 - Disclaimer

ORBIFLY MET'MAP TEAM :

Programming & Development : Alexandra Zaïnal
Concept & original design : Baudouin d'Aumeries
Assistance for programming : Marc-Olivier Méhu
Technical & hardware support : Manuel Goepfert

Contact : metmap@orbifly.com




SOURCES & CREDITS :

   NOAA